sensor_id;sensor_type;location;lat;lon;timestamp;temperature;humidity
16102;DHT22;56411;52.964;10.540;2023-03-14T00:01:49;10.50;99.90
16102;DHT22;56411;52.964;10.540;2023-03-14T00:04:17;10.40;99.90
16102;DHT22;56411;52.964;10.540;2023-03-14T00:06:44;10.50;99.90
16102;DHT22;56411;52.964;10.540;2023-03-14T00:09:12;10.50;99.90
16102;DHT22;56411;52.964;10.540;2023-03-14T00:11:41;10.60;99.90
16102;DHT22;56411;52.964;10.540;2023-03-14T00:14:08;10.50;99.90
16102;DHT22;56411;52.964;10.540;2023-03-14T00:16:35;10.50;99.90
16102;DHT22;56411;52.964;10.540;2023-03-14T00:19:02;10.50;99.90
16102;DHT22;56411;52.964;10.540;2023-03-14T00:21:30;10.50;99.90
16102;DHT22;56411;52.964;10.540;2023-03-14T00:23:57;10.50;99.90
16102;DHT22;56411;52.964;10.540;2023-03-14T00:26:24;10.50;99.90
16102;DHT22;56411;52.964;10.540;2023-03-14T00:28:53;10.50;99.90
16102;DHT22;56411;52.964;10.540;2023-03-14T00:31:21;10.50;99.90
16102;DHT22;56411;52.964;10.540;2023-03-14T00:33:48;10.50;99.90
16102;DHT22;56411;52.964;10.540;2023-03-14T00:36:18;10.30;99.90
16102;DHT22;56411;52.964;10.540;2023-03-14T00:38:48;10.30;99.90
16102;DHT22;56411;52.964;10.540;2023-03-14T00:41:17;10.30;99.90
16102;DHT22;56411;52.964;10.540;2023-03-14T00:43:45;10.30;99.90
16102;DHT22;56411;52.964;10.540;2023-03-14T00:46:13;10.30;99.90
16102;DHT22;56411;52.964;10.540;2023-03-14T00:48:41;10.20;99.90
16102;DHT22;56411;52.964;10.540;2023-03-14T00:51:11;10.20;99.90
16102;DHT22;56411;52.964;10.540;2023-03-14T00:53:39;10.20;99.90
16102;DHT22;56411;52.964;10.540;2023-03-14T00:56:10;10.10;99.90
16102;DHT22;56411;52.964;10.540;2023-03-14T00:58:38;10.10;99.90
16102;DHT22;56411;52.964;10.540;2023-03-14T01:01:07;10.10;99.90
16102;DHT22;56411;52.964;10.540;2023-03-14T01:03:36;10.00;99.90
16102;DHT22;56411;52.964;10.540;2023-03-14T01:06:11;10.00;99.90
16102;DHT22;56411;52.964;10.540;2023-03-14T01:08:39;10.00;99.90
16102;DHT22;56411;52.964;10.540;2023-03-14T01:11:08;10.00;99.90
16102;DHT22;56411;52.964;10.540;2023-03-14T01:13:36;9.90;99.90
16102;DHT22;56411;52.964;10.540;2023-03-14T01:16:04;9.90;99.90
16102;DHT22;56411;52.964;10.540;2023-03-14T01:18:32;9.90;99.90
16102;DHT22;56411;52.964;10.540;2023-03-14T01:21:02;9.90;99.90
16102;DHT22;56411;52.964;10.540;2023-03-14T01:23:29;10.00;99.90
16102;DHT22;56411;52.964;10.540;2023-03-14T01:25:57;10.10;99.90
16102;DHT22;56411;52.964;10.540;2023-03-14T01:28:24;10.20;99.90
16102;DHT22;56411;52.964;10.540;2023-03-14T01:30:52;10.20;99.90
16102;DHT22;56411;52.964;10.540;2023-03-14T01:33:19;10.30;99.90
16102;DHT22;56411;52.964;10.540;2023-03-14T01:35:49;10.30;99.90
16102;DHT22;56411;52.964;10.540;2023-03-14T01:38:18;10.30;99.90
16102;DHT22;56411;52.964;10.540;2023-03-14T01:40:46;10.20;99.90
16102;DHT22;56411;52.964;10.540;2023-03-14T01:43:15;10.30;99.90
16102;DHT22;56411;52.964;10.540;2023-03-14T01:46:16;10.30;99.90
16102;DHT22;56411;52.964;10.540;2023-03-14T01:48:49;10.40;99.90
16102;DHT22;56411;52.964;10.540;2023-03-14T01:51:22;10.30;99.90
16102;DHT22;56411;52.964;10.540;2023-03-14T01:53:55;10.30;99.90
16102;DHT22;56411;52.964;10.540;2023-03-14T01:56:26;10.20;99.90
16102;DHT22;56411;52.964;10.540;2023-03-14T01:58:54;10.10;99.90
16102;DHT22;56411;52.964;10.540;2023-03-14T02:01:24;10.00;99.90
16102;DHT22;56411;52.964;10.540;2023-03-14T02:03:54;10.00;99.90
16102;DHT22;56411;52.964;10.540;2023-03-14T02:06:25;9.90;99.90
16102;DHT22;56411;52.964;10.540;2023-03-14T02:08:55;9.90;99.90
16102;DHT22;56411;52.964;10.540;2023-03-14T02:11:27;10.00;99.90
16102;DHT22;56411;52.964;10.540;2023-03-14T02:13:56;10.10;99.90
16102;DHT22;56411;52.964;10.540;2023-03-14T02:16:23;10.00;99.90
16102;DHT22;56411;52.964;10.540;2023-03-14T02:18:51;10.00;99.90
16102;DHT22;56411;52.964;10.540;2023-03-14T02:21:23;10.10;99.90
16102;DHT22;56411;52.964;10.540;2023-03-14T02:24:02;10.20;99.90
16102;DHT22;56411;52.964;10.540;2023-03-14T02:26:35;10.20;99.90
16102;DHT22;56411;52.964;10.540;2023-03-14T02:29:06;10.30;99.90
16102;DHT22;56411;52.964;10.540;2023-03-14T02:31:33;10.30;99.90
16102;DHT22;56411;52.964;10.540;2023-03-14T02:34:02;10.30;99.90
16102;DHT22;56411;52.964;10.540;2023-03-14T02:36:30;10.30;99.90
16102;DHT22;56411;52.964;10.540;2023-03-14T02:39:03;10.40;99.90
16102;DHT22;56411;52.964;10.540;2023-03-14T02:41:34;10.40;99.90
16102;DHT22;56411;52.964;10.540;2023-03-14T02:44:01;10.50;99.90
16102;DHT22;56411;52.964;10.540;2023-03-14T02:46:30;10.50;99.90
16102;DHT22;56411;52.964;10.540;2023-03-14T02:49:01;10.50;99.90
16102;DHT22;56411;52.964;10.540;2023-03-14T02:51:30;10.60;99.90
16102;DHT22;56411;52.964;10.540;2023-03-14T02:53:58;10.60;99.90
16102;DHT22;56411;52.964;10.540;2023-03-14T02:56:26;10.70;99.90
16102;DHT22;56411;52.964;10.540;2023-03-14T02:58:53;10.70;99.90
16102;DHT22;56411;52.964;10.540;2023-03-14T03:01:20;10.70;99.90
16102;DHT22;56411;52.964;10.540;2023-03-14T03:03:49;10.80;99.90
16102;DHT22;56411;52.964;10.540;2023-03-14T03:06:16;10.70;99.90
16102;DHT22;56411;52.964;10.540;2023-03-14T03:08:43;10.80;99.90
16102;DHT22;56411;52.964;10.540;2023-03-14T03:11:11;10.70;99.90
16102;DHT22;56411;52.964;10.540;2023-03-14T03:13:38;10.80;99.90
16102;DHT22;56411;52.964;10.540;2023-03-14T03:16:06;10.80;99.90
16102;DHT22;56411;52.964;10.540;2023-03-14T03:18:33;10.80;99.90
16102;DHT22;56411;52.964;10.540;2023-03-14T03:21:02;10.70;99.90
16102;DHT22;56411;52.964;10.540;2023-03-14T03:23:30;10.70;99.90
16102;DHT22;56411;52.964;10.540;2023-03-14T03:25:58;10.70;99.90
16102;DHT22;56411;52.964;10.540;2023-03-14T03:28:25;10.70;99.90
16102;DHT22;56411;52.964;10.540;2023-03-14T03:30:52;10.80;99.90
16102;DHT22;56411;52.964;10.540;2023-03-14T03:33:20;10.80;99.90
16102;DHT22;56411;52.964;10.540;2023-03-14T03:35:49;10.80;99.90
16102;DHT22;56411;52.964;10.540;2023-03-14T03:38:19;10.80;99.90
16102;DHT22;56411;52.964;10.540;2023-03-14T03:40:47;10.70;99.90
16102;DHT22;56411;52.964;10.540;2023-03-14T03:43:14;10.70;99.90
16102;DHT22;56411;52.964;10.540;2023-03-14T03:45:41;10.70;99.90
16102;DHT22;56411;52.964;10.540;2023-03-14T03:48:08;10.70;99.90
16102;DHT22;56411;52.964;10.540;2023-03-14T03:50:36;10.60;99.90
16102;DHT22;56411;52.964;10.540;2023-03-14T03:53:03;10.50;99.90
16102;DHT22;56411;52.964;10.540;2023-03-14T03:55:31;10.50;99.90
16102;DHT22;56411;52.964;10.540;2023-03-14T03:57:59;10.50;99.90
16102;DHT22;56411;52.964;10.540;2023-03-14T04:00:26;10.50;99.90
16102;DHT22;56411;52.964;10.540;2023-03-14T04:02:53;10.50;99.90
16102;DHT22;56411;52.964;10.540;2023-03-14T04:05:20;10.50;99.90
16102;DHT22;56411;52.964;10.540;2023-03-14T04:07:47;10.40;99.90
16102;DHT22;56411;52.964;10.540;2023-03-14T04:10:14;10.40;99.90
16102;DHT22;56411;52.964;10.540;2023-03-14T04:12:44;10.30;99.90
16102;DHT22;56411;52.964;10.540;2023-03-14T04:15:11;10.30;99.90
16102;DHT22;56411;52.964;10.540;2023-03-14T04:17:38;10.30;99.90
16102;DHT22;56411;52.964;10.540;2023-03-14T04:20:07;10.30;99.90
16102;DHT22;56411;52.964;10.540;2023-03-14T04:22:36;10.30;99.90
16102;DHT22;56411;52.964;10.540;2023-03-14T04:25:04;10.30;99.90
16102;DHT22;56411;52.964;10.540;2023-03-14T04:27:31;10.40;99.90
16102;DHT22;56411;52.964;10.540;2023-03-14T04:30:00;10.40;99.90
16102;DHT22;56411;52.964;10.540;2023-03-14T04:32:27;10.40;99.90
16102;DHT22;56411;52.964;10.540;2023-03-14T04:34:55;10.40;99.90
16102;DHT22;56411;52.964;10.540;2023-03-14T04:37:22;10.40;99.90
16102;DHT22;56411;52.964;10.540;2023-03-14T04:39:49;10.40;99.90
16102;DHT22;56411;52.964;10.540;2023-03-14T04:42:16;10.40;99.90
16102;DHT22;56411;52.964;10.540;2023-03-14T04:44:44;10.50;99.90
16102;DHT22;56411;52.964;10.540;2023-03-14T04:47:14;10.50;99.90
16102;DHT22;56411;52.964;10.540;2023-03-14T04:49:41;10.50;99.90
16102;DHT22;56411;52.964;10.540;2023-03-14T04:52:08;10.50;99.90
16102;DHT22;56411;52.964;10.540;2023-03-14T04:54:35;10.50;99.90
16102;DHT22;56411;52.964;10.540;2023-03-14T04:57:03;10.50;99.90
16102;DHT22;56411;52.964;10.540;2023-03-14T04:59:30;10.60;99.90
16102;DHT22;56411;52.964;10.540;2023-03-14T05:01:57;10.50;99.90
16102;DHT22;56411;52.964;10.540;2023-03-14T05:04:25;10.40;99.90
16102;DHT22;56411;52.964;10.540;2023-03-14T05:06:53;10.30;99.90
16102;DHT22;56411;52.964;10.540;2023-03-14T05:09:20;10.30;99.90
16102;DHT22;56411;52.964;10.540;2023-03-14T05:11:47;10.20;99.90
16102;DHT22;56411;52.964;10.540;2023-03-14T05:14:14;10.10;99.90
16102;DHT22;56411;52.964;10.540;2023-03-14T05:16:42;10.10;99.90
16102;DHT22;56411;52.964;10.540;2023-03-14T05:19:10;9.90;99.90
16102;DHT22;56411;52.964;10.540;2023-03-14T05:21:39;9.90;99.90
16102;DHT22;56411;52.964;10.540;2023-03-14T05:24:06;9.80;99.90
16102;DHT22;56411;52.964;10.540;2023-03-14T05:26:33;9.80;99.90
16102;DHT22;56411;52.964;10.540;2023-03-14T05:29:00;9.70;99.90
16102;DHT22;56411;52.964;10.540;2023-03-14T05:31:27;9.50;99.90
16102;DHT22;56411;52.964;10.540;2023-03-14T05:33:54;9.60;99.90
16102;DHT22;56411;52.964;10.540;2023-03-14T05:36:28;9.50;99.90
16102;DHT22;56411;52.964;10.540;2023-03-14T05:38:59;9.30;99.90
16102;DHT22;56411;52.964;10.540;2023-03-14T05:41:26;9.20;99.90
16102;DHT22;56411;52.964;10.540;2023-03-14T05:43:54;9.20;99.90
16102;DHT22;56411;52.964;10.540;2023-03-14T05:46:22;9.10;99.90
16102;DHT22;56411;52.964;10.540;2023-03-14T05:48:49;9.20;99.90
16102;DHT22;56411;52.964;10.540;2023-03-14T05:51:16;9.10;99.90
16102;DHT22;56411;52.964;10.540;2023-03-14T05:53:43;9.10;99.90
16102;DHT22;56411;52.964;10.540;2023-03-14T05:56:12;9.00;99.90
16102;DHT22;56411;52.964;10.540;2023-03-14T05:58:39;9.00;99.90
16102;DHT22;56411;52.964;10.540;2023-03-14T06:01:07;9.00;99.90
16102;DHT22;56411;52.964;10.540;2023-03-14T06:03:35;9.00;99.90
16102;DHT22;56411;52.964;10.540;2023-03-14T06:06:02;8.90;99.90
16102;DHT22;56411;52.964;10.540;2023-03-14T06:08:29;8.90;99.90
16102;DHT22;56411;52.964;10.540;2023-03-14T06:10:57;9.00;99.90
16102;DHT22;56411;52.964;10.540;2023-03-14T06:13:26;8.90;99.90
16102;DHT22;56411;52.964;10.540;2023-03-14T06:15:53;8.90;99.90
16102;DHT22;56411;52.964;10.540;2023-03-14T06:18:20;9.00;99.90
16102;DHT22;56411;52.964;10.540;2023-03-14T06:20:47;8.90;99.90
16102;DHT22;56411;52.964;10.540;2023-03-14T06:23:14;8.90;99.90
16102;DHT22;56411;52.964;10.540;2023-03-14T06:25:42;8.90;99.90
16102;DHT22;56411;52.964;10.540;2023-03-14T06:28:09;9.00;99.90
16102;DHT22;56411;52.964;10.540;2023-03-14T06:30:41;9.00;99.90
16102;DHT22;56411;52.964;10.540;2023-03-14T06:33:08;9.10;99.90
16102;DHT22;56411;52.964;10.540;2023-03-14T06:35:36;9.10;99.90
16102;DHT22;56411;52.964;10.540;2023-03-14T06:38:03;9.10;99.90
16102;DHT22;56411;52.964;10.540;2023-03-14T06:40:30;9.10;99.90
16102;DHT22;56411;52.964;10.540;2023-03-14T06:42:57;9.20;99.90
16102;DHT22;56411;52.964;10.540;2023-03-14T06:45:24;9.20;99.90
16102;DHT22;56411;52.964;10.540;2023-03-14T06:47:53;9.30;99.90
16102;DHT22;56411;52.964;10.540;2023-03-14T06:50:20;9.50;99.90
16102;DHT22;56411;52.964;10.540;2023-03-14T06:52:48;9.60;99.90
16102;DHT22;56411;52.964;10.540;2023-03-14T06:55:16;9.70;99.90
16102;DHT22;56411;52.964;10.540;2023-03-14T06:57:43;9.80;99.90
16102;DHT22;56411;52.964;10.540;2023-03-14T07:00:12;9.90;99.90
16102;DHT22;56411;52.964;10.540;2023-03-14T07:02:40;9.80;99.90
16102;DHT22;56411;52.964;10.540;2023-03-14T07:05:09;9.80;99.90
16102;DHT22;56411;52.964;10.540;2023-03-14T07:07:37;9.80;99.90
16102;DHT22;56411;52.964;10.540;2023-03-14T07:10:05;9.80;99.90
16102;DHT22;56411;52.964;10.540;2023-03-14T07:12:34;9.80;99.90
16102;DHT22;56411;52.964;10.540;2023-03-14T07:15:01;9.90;99.90
16102;DHT22;56411;52.964;10.540;2023-03-14T07:17:29;10.00;99.90
16102;DHT22;56411;52.964;10.540;2023-03-14T07:19:56;10.00;99.90
16102;DHT22;56411;52.964;10.540;2023-03-14T07:22:26;10.00;99.90
16102;DHT22;56411;52.964;10.540;2023-03-14T07:24:53;10.00;99.90
16102;DHT22;56411;52.964;10.540;2023-03-14T07:27:20;10.10;99.90
16102;DHT22;56411;52.964;10.540;2023-03-14T07:29:47;10.10;99.90
16102;DHT22;56411;52.964;10.540;2023-03-14T07:32:14;10.20;99.90
16102;DHT22;56411;52.964;10.540;2023-03-14T07:34:42;10.20;99.90
16102;DHT22;56411;52.964;10.540;2023-03-14T07:37:09;10.20;99.90
16102;DHT22;56411;52.964;10.540;2023-03-14T07:39:38;10.20;99.90
16102;DHT22;56411;52.964;10.540;2023-03-14T07:42:05;10.20;99.90
16102;DHT22;56411;52.964;10.540;2023-03-14T07:44:32;10.20;99.90
16102;DHT22;56411;52.964;10.540;2023-03-14T07:47:00;10.30;99.90
16102;DHT22;56411;52.964;10.540;2023-03-14T07:49:27;10.30;99.90
16102;DHT22;56411;52.964;10.540;2023-03-14T07:51:54;10.30;99.90
16102;DHT22;56411;52.964;10.540;2023-03-14T07:54:21;10.40;99.90
16102;DHT22;56411;52.964;10.540;2023-03-14T07:56:50;10.50;99.90
16102;DHT22;56411;52.964;10.540;2023-03-14T07:59:18;10.50;99.90
16102;DHT22;56411;52.964;10.540;2023-03-14T08:01:45;10.60;99.90
16102;DHT22;56411;52.964;10.540;2023-03-14T08:04:12;10.70;99.90
16102;DHT22;56411;52.964;10.540;2023-03-14T08:06:39;10.70;99.90
16102;DHT22;56411;52.964;10.540;2023-03-14T08:09:06;10.80;99.90
16102;DHT22;56411;52.964;10.540;2023-03-14T08:11:34;11.00;99.90
16102;DHT22;56411;52.964;10.540;2023-03-14T08:14:03;11.00;99.90
16102;DHT22;56411;52.964;10.540;2023-03-14T08:16:33;11.10;99.90
16102;DHT22;56411;52.964;10.540;2023-03-14T08:19:02;11.10;99.90
16102;DHT22;56411;52.964;10.540;2023-03-14T08:21:29;11.10;99.90
16102;DHT22;56411;52.964;10.540;2023-03-14T08:23:57;11.10;99.90
16102;DHT22;56411;52.964;10.540;2023-03-14T08:26:27;11.00;99.90
16102;DHT22;56411;52.964;10.540;2023-03-14T08:28:55;11.00;99.90
16102;DHT22;56411;52.964;10.540;2023-03-14T08:31:24;11.00;99.90
16102;DHT22;56411;52.964;10.540;2023-03-14T08:33:51;11.00;99.90
16102;DHT22;56411;52.964;10.540;2023-03-14T08:36:19;11.10;99.90
16102;DHT22;56411;52.964;10.540;2023-03-14T08:38:46;11.10;99.90
16102;DHT22;56411;52.964;10.540;2023-03-14T08:41:13;11.20;99.90
16102;DHT22;56411;52.964;10.540;2023-03-14T08:43:41;11.30;99.90
16102;DHT22;56411;52.964;10.540;2023-03-14T08:46:08;11.20;99.90
16102;DHT22;56411;52.964;10.540;2023-03-14T08:48:37;11.20;99.90
16102;DHT22;56411;52.964;10.540;2023-03-14T08:51:05;11.20;99.90
16102;DHT22;56411;52.964;10.540;2023-03-14T08:53:33;11.10;99.90
16102;DHT22;56411;52.964;10.540;2023-03-14T08:56:00;11.20;99.90
16102;DHT22;56411;52.964;10.540;2023-03-14T08:58:27;11.30;99.90
16102;DHT22;56411;52.964;10.540;2023-03-14T09:00:56;11.20;99.90
16102;DHT22;56411;52.964;10.540;2023-03-14T09:03:23;11.30;99.90
16102;DHT22;56411;52.964;10.540;2023-03-14T09:05:52;11.30;99.90
16102;DHT22;56411;52.964;10.540;2023-03-14T09:08:19;11.30;99.90
16102;DHT22;56411;52.964;10.540;2023-03-14T09:10:46;11.30;99.90
16102;DHT22;56411;52.964;10.540;2023-03-14T09:13:14;11.40;99.90
16102;DHT22;56411;52.964;10.540;2023-03-14T09:15:41;11.60;99.90
16102;DHT22;56411;52.964;10.540;2023-03-14T09:18:09;11.50;99.90
16102;DHT22;56411;52.964;10.540;2023-03-14T09:20:36;11.80;99.90
16102;DHT22;56411;52.964;10.540;2023-03-14T09:23:04;12.10;99.90
16102;DHT22;56411;52.964;10.540;2023-03-14T09:25:32;12.20;99.90
16102;DHT22;56411;52.964;10.540;2023-03-14T09:27:59;12.30;99.90
16102;DHT22;56411;52.964;10.540;2023-03-14T09:30:26;12.40;99.90
16102;DHT22;56411;52.964;10.540;2023-03-14T09:32:53;12.30;99.90
16102;DHT22;56411;52.964;10.540;2023-03-14T09:35:20;12.30;99.90
16102;DHT22;56411;52.964;10.540;2023-03-14T09:37:48;12.30;99.90
16102;DHT22;56411;52.964;10.540;2023-03-14T09:40:18;12.10;99.90
16102;DHT22;56411;52.964;10.540;2023-03-14T09:42:47;12.10;99.90
16102;DHT22;56411;52.964;10.540;2023-03-14T09:45:18;12.00;99.90
16102;DHT22;56411;52.964;10.540;2023-03-14T09:47:48;11.90;99.90
16102;DHT22;56411;52.964;10.540;2023-03-14T09:50:16;11.70;99.90
16102;DHT22;56411;52.964;10.540;2023-03-14T09:52:46;11.30;99.90
16102;DHT22;56411;52.964;10.540;2023-03-14T09:55:20;11.20;99.90
16102;DHT22;56411;52.964;10.540;2023-03-14T09:57:51;11.00;99.90
16102;DHT22;56411;52.964;10.540;2023-03-14T10:00:23;11.00;99.90
16102;DHT22;56411;52.964;10.540;2023-03-14T10:02:55;10.90;99.90
16102;DHT22;56411;52.964;10.540;2023-03-14T10:05:24;11.00;99.90
16102;DHT22;56411;52.964;10.540;2023-03-14T10:07:53;11.20;99.90
16102;DHT22;56411;52.964;10.540;2023-03-14T10:10:24;11.30;99.90
16102;DHT22;56411;52.964;10.540;2023-03-14T10:12:56;11.60;99.90
16102;DHT22;56411;52.964;10.540;2023-03-14T10:15:26;11.70;99.90
16102;DHT22;56411;52.964;10.540;2023-03-14T10:17:53;11.60;99.90
16102;DHT22;56411;52.964;10.540;2023-03-14T10:20:32;11.50;99.90
16102;DHT22;56411;52.964;10.540;2023-03-14T10:23:01;11.50;99.90
16102;DHT22;56411;52.964;10.540;2023-03-14T10:25:32;11.50;99.90
16102;DHT22;56411;52.964;10.540;2023-03-14T10:28:00;11.20;99.90
16102;DHT22;56411;52.964;10.540;2023-03-14T10:30:30;11.20;99.90
16102;DHT22;56411;52.964;10.540;2023-03-14T10:33:08;11.20;99.90
16102;DHT22;56411;52.964;10.540;2023-03-14T10:35:36;11.00;99.90
16102;DHT22;56411;52.964;10.540;2023-03-14T10:38:04;11.10;99.90
16102;DHT22;56411;52.964;10.540;2023-03-14T10:40:37;11.00;99.90
16102;DHT22;56411;52.964;10.540;2023-03-14T10:43:11;11.00;99.90
16102;DHT22;56411;52.964;10.540;2023-03-14T10:45:41;11.00;99.90
16102;DHT22;56411;52.964;10.540;2023-03-14T10:48:20;10.90;99.90
16102;DHT22;56411;52.964;10.540;2023-03-14T10:50:49;10.90;99.90
16102;DHT22;56411;52.964;10.540;2023-03-14T10:53:17;10.80;99.90
16102;DHT22;56411;52.964;10.540;2023-03-14T10:55:46;10.80;99.90
16102;DHT22;56411;52.964;10.540;2023-03-14T10:58:20;10.80;99.90
16102;DHT22;56411;52.964;10.540;2023-03-14T11:00:52;10.70;99.90
16102;DHT22;56411;52.964;10.540;2023-03-14T11:03:21;10.80;99.90
16102;DHT22;56411;52.964;10.540;2023-03-14T11:05:52;10.80;99.90
16102;DHT22;56411;52.964;10.540;2023-03-14T11:08:25;10.90;99.90
16102;DHT22;56411;52.964;10.540;2023-03-14T11:11:07;11.00;99.90
16102;DHT22;56411;52.964;10.540;2023-03-14T11:13:40;11.00;99.90
16102;DHT22;56411;52.964;10.540;2023-03-14T11:16:18;10.80;99.90
16102;DHT22;56411;52.964;10.540;2023-03-14T11:19:03;10.80;99.90
16102;DHT22;56411;52.964;10.540;2023-03-14T11:21:35;10.70;99.90
16102;DHT22;56411;52.964;10.540;2023-03-14T11:24:25;10.60;99.90
16102;DHT22;56411;52.964;10.540;2023-03-14T11:27:00;9.80;99.90
16102;DHT22;56411;52.964;10.540;2023-03-14T11:29:38;9.40;99.90
16102;DHT22;56411;52.964;10.540;2023-03-14T11:32:12;8.60;99.90
16102;DHT22;56411;52.964;10.540;2023-03-14T11:34:48;8.00;99.90
16102;DHT22;56411;52.964;10.540;2023-03-14T11:37:23;7.80;99.90
16102;DHT22;56411;52.964;10.540;2023-03-14T11:39:58;7.70;99.90
16102;DHT22;56411;52.964;10.540;2023-03-14T11:42:29;7.60;99.90
16102;DHT22;56411;52.964;10.540;2023-03-14T11:44:59;7.50;99.90
16102;DHT22;56411;52.964;10.540;2023-03-14T11:47:31;7.20;99.90
16102;DHT22;56411;52.964;10.540;2023-03-14T11:50:03;7.00;99.90
16102;DHT22;56411;52.964;10.540;2023-03-14T11:52:38;6.90;99.90
16102;DHT22;56411;52.964;10.540;2023-03-14T11:55:15;6.80;99.90
16102;DHT22;56411;52.964;10.540;2023-03-14T11:57:46;6.70;99.90
16102;DHT22;56411;52.964;10.540;2023-03-14T12:00:17;6.60;99.90
16102;DHT22;56411;52.964;10.540;2023-03-14T12:02:49;6.40;99.90
16102;DHT22;56411;52.964;10.540;2023-03-14T12:05:37;6.20;99.90
16102;DHT22;56411;52.964;10.540;2023-03-14T12:08:33;5.90;99.90
16102;DHT22;56411;52.964;10.540;2023-03-14T12:11:10;5.80;99.90
16102;DHT22;56411;52.964;10.540;2023-03-14T12:13:40;5.60;99.90
16102;DHT22;56411;52.964;10.540;2023-03-14T12:16:32;5.40;99.90
16102;DHT22;56411;52.964;10.540;2023-03-14T12:22:26;5.20;99.90
16102;DHT22;56411;52.964;10.540;2023-03-14T12:24:57;5.00;99.90
16102;DHT22;56411;52.964;10.540;2023-03-14T12:30:35;4.90;99.90
16102;DHT22;56411;52.964;10.540;2023-03-14T12:33:20;4.70;99.90
16102;DHT22;56411;52.964;10.540;2023-03-14T12:35:48;4.60;99.90
16102;DHT22;56411;52.964;10.540;2023-03-14T12:38:20;4.50;99.90
16102;DHT22;56411;52.964;10.540;2023-03-14T12:40:57;4.50;99.90
16102;DHT22;56411;52.964;10.540;2023-03-14T12:43:27;4.40;99.90
16102;DHT22;56411;52.964;10.540;2023-03-14T12:46:15;4.40;99.90
16102;DHT22;56411;52.964;10.540;2023-03-14T12:48:47;4.30;99.90
16102;DHT22;56411;52.964;10.540;2023-03-14T12:51:16;4.20;99.90
16102;DHT22;56411;52.964;10.540;2023-03-14T12:53:57;4.00;99.90
16102;DHT22;56411;52.964;10.540;2023-03-14T12:56:28;3.90;99.90
16102;DHT22;56411;52.964;10.540;2023-03-14T12:59:22;3.90;99.90
16102;DHT22;56411;52.964;10.540;2023-03-14T13:01:57;3.70;99.90
16102;DHT22;56411;52.964;10.540;2023-03-14T13:04:29;3.70;99.90
16102;DHT22;56411;52.964;10.540;2023-03-14T13:06:59;3.50;99.90
16102;DHT22;56411;52.964;10.540;2023-03-14T13:12:28;3.40;99.90
16102;DHT22;56411;52.964;10.540;2023-03-14T13:14:59;3.30;99.90
16102;DHT22;56411;52.964;10.540;2023-03-14T13:17:32;3.30;99.90
16102;DHT22;56411;52.964;10.540;2023-03-14T13:20:02;3.20;99.90
16102;DHT22;56411;52.964;10.540;2023-03-14T13:22:33;3.20;99.90
16102;DHT22;56411;52.964;10.540;2023-03-14T13:25:03;3.20;99.90
16102;DHT22;56411;52.964;10.540;2023-03-14T13:27:33;3.20;99.90
16102;DHT22;56411;52.964;10.540;2023-03-14T13:30:12;3.20;99.90
16102;DHT22;56411;52.964;10.540;2023-03-14T13:32:44;3.20;99.90
16102;DHT22;56411;52.964;10.540;2023-03-14T13:35:18;3.30;99.90
16102;DHT22;56411;52.964;10.540;2023-03-14T13:37:45;3.30;99.90
16102;DHT22;56411;52.964;10.540;2023-03-14T13:40:23;3.30;99.90
16102;DHT22;56411;52.964;10.540;2023-03-14T13:43:01;3.40;99.90
16102;DHT22;56411;52.964;10.540;2023-03-14T13:45:29;3.40;99.90
16102;DHT22;56411;52.964;10.540;2023-03-14T13:47:58;3.50;99.90
16102;DHT22;56411;52.964;10.540;2023-03-14T13:50:25;3.60;99.90
16102;DHT22;56411;52.964;10.540;2023-03-14T13:52:56;3.70;99.90
16102;DHT22;56411;52.964;10.540;2023-03-14T13:55:23;3.70;99.90
16102;DHT22;56411;52.964;10.540;2023-03-14T13:57:52;3.80;99.90
16102;DHT22;56411;52.964;10.540;2023-03-14T14:00:22;4.00;99.90
16102;DHT22;56411;52.964;10.540;2023-03-14T14:02:53;4.00;99.90
16102;DHT22;56411;52.964;10.540;2023-03-14T14:07:50;3.90;99.90
16102;DHT22;56411;52.964;10.540;2023-03-14T14:10:18;3.90;99.90
16102;DHT22;56411;52.964;10.540;2023-03-14T14:12:48;3.90;99.90
16102;DHT22;56411;52.964;10.540;2023-03-14T14:15:19;3.90;99.90
16102;DHT22;56411;52.964;10.540;2023-03-14T14:17:50;3.80;99.90
16102;DHT22;56411;52.964;10.540;2023-03-14T14:20:25;3.80;99.90
16102;DHT22;56411;52.964;10.540;2023-03-14T14:22:57;3.80;99.90
16102;DHT22;56411;52.964;10.540;2023-03-14T14:25:25;3.80;99.90
16102;DHT22;56411;52.964;10.540;2023-03-14T14:27:53;3.80;99.90
16102;DHT22;56411;52.964;10.540;2023-03-14T14:30:29;3.90;99.90
16102;DHT22;56411;52.964;10.540;2023-03-14T14:33:16;4.00;99.90
16102;DHT22;56411;52.964;10.540;2023-03-14T14:35:53;4.10;99.90
16102;DHT22;56411;52.964;10.540;2023-03-14T14:38:21;4.20;99.90
16102;DHT22;56411;52.964;10.540;2023-03-14T14:40:49;4.20;99.90
16102;DHT22;56411;52.964;10.540;2023-03-14T14:43:21;4.30;99.90
16102;DHT22;56411;52.964;10.540;2023-03-14T14:45:51;4.40;99.90
16102;DHT22;56411;52.964;10.540;2023-03-14T14:48:21;4.40;99.90
16102;DHT22;56411;52.964;10.540;2023-03-14T14:50:55;4.40;99.90
16102;DHT22;56411;52.964;10.540;2023-03-14T14:53:26;4.50;99.90
16102;DHT22;56411;52.964;10.540;2023-03-14T14:55:55;4.40;99.90
16102;DHT22;56411;52.964;10.540;2023-03-14T14:58:25;4.40;99.90
16102;DHT22;56411;52.964;10.540;2023-03-14T15:00:56;4.40;99.90
16102;DHT22;56411;52.964;10.540;2023-03-14T15:03:26;4.40;99.90
16102;DHT22;56411;52.964;10.540;2023-03-14T15:05:56;4.30;99.90
16102;DHT22;56411;52.964;10.540;2023-03-14T15:08:24;4.30;99.90
16102;DHT22;56411;52.964;10.540;2023-03-14T15:10:52;4.30;99.90
16102;DHT22;56411;52.964;10.540;2023-03-14T15:13:19;4.30;99.90
16102;DHT22;56411;52.964;10.540;2023-03-14T15:15:46;4.40;99.90
16102;DHT22;56411;52.964;10.540;2023-03-14T15:18:16;4.40;99.90
16102;DHT22;56411;52.964;10.540;2023-03-14T15:20:43;4.40;99.90
16102;DHT22;56411;52.964;10.540;2023-03-14T15:23:14;4.40;99.90
16102;DHT22;56411;52.964;10.540;2023-03-14T15:25:42;4.40;99.90
16102;DHT22;56411;52.964;10.540;2023-03-14T15:28:18;4.30;99.90
16102;DHT22;56411;52.964;10.540;2023-03-14T15:30:46;4.30;99.90
16102;DHT22;56411;52.964;10.540;2023-03-14T15:33:14;4.30;99.90
16102;DHT22;56411;52.964;10.540;2023-03-14T15:35:41;4.30;99.90
16102;DHT22;56411;52.964;10.540;2023-03-14T15:38:12;4.30;99.90
16102;DHT22;56411;52.964;10.540;2023-03-14T15:40:40;4.30;99.90
16102;DHT22;56411;52.964;10.540;2023-03-14T15:43:08;4.30;99.90
16102;DHT22;56411;52.964;10.540;2023-03-14T15:45:35;4.30;99.90
16102;DHT22;56411;52.964;10.540;2023-03-14T15:48:03;4.30;99.90
16102;DHT22;56411;52.964;10.540;2023-03-14T15:50:30;4.30;99.90